createdAt,value
2022-11-29T00:00:03.862Z,95396.47
2022-11-29T00:01:18.862Z,95388.34
2022-11-29T00:02:20.834Z,95395.69
2022-11-29T00:03:23.838Z,95391.03
2022-11-29T00:04:25.746Z,95391.81
2022-11-29T00:05:28.731Z,95391.03
2022-11-29T00:06:33.375Z,95389.09
2022-11-29T00:07:36.297Z,95386.00
2022-11-29T00:08:38.572Z,95383.69
2022-11-29T00:09:41.587Z,95393.38
2022-11-29T00:10:44.781Z,95386.38
2022-11-29T00:12:05.094Z,95389.91
2022-11-29T00:13:07.991Z,95389.91
2022-11-29T00:14:12.674Z,95390.28
2022-11-29T00:15:15.786Z,95391.81
2022-11-29T00:16:17.764Z,95385.63
2022-11-29T00:17:20.715Z,95380.97
2022-11-29T00:18:22.614Z,95382.16
2022-11-29T00:19:25.651Z,95380.22
2022-11-29T00:20:27.535Z,95379.06
2022-11-29T00:21:30.384Z,95380.22
2022-11-29T00:22:33.487Z,95381.75
2022-11-29T00:23:35.885Z,95376.34
2022-11-29T00:24:39.136Z,95381.75
2022-11-29T00:25:40.974Z,95376.34
2022-11-29T00:26:45.323Z,95380.59
2022-11-29T00:27:47.221Z,95377.13
2022-11-29T00:28:50.344Z,95380.97
2022-11-29T00:29:53.315Z,95376.72
2022-11-29T00:30:55.242Z,95384.84
2022-11-29T00:31:58.116Z,95374.78
2022-11-29T00:33:00.080Z,95370.13
2022-11-29T00:34:06.862Z,95367.44
2022-11-29T00:35:10.119Z,95375.56
2022-11-29T00:36:12.959Z,95364.72
2022-11-29T00:37:16.704Z,95378.66
2022-11-29T00:38:18.635Z,95378.66
2022-11-29T00:39:21.490Z,95370.91
2022-11-29T00:40:23.359Z,95367.03
2022-11-29T00:41:26.530Z,95372.47
2022-11-29T00:42:29.794Z,95377.09
2022-11-29T00:43:32.744Z,95377.88
2022-11-29T00:44:34.643Z,95372.47
2022-11-29T00:45:37.648Z,95372.47
2022-11-29T00:46:39.618Z,95368.19
2022-11-29T00:47:42.529Z,95363.19
2022-11-29T00:48:44.476Z,95365.50
2022-11-29T00:49:47.374Z,95372.84
2022-11-29T00:50:49.275Z,95375.56
2022-11-29T00:51:52.170Z,95375.56
2022-11-29T00:52:54.143Z,95364.72
2022-11-29T00:53:57.023Z,95365.50
2022-11-29T00:54:58.913Z,95366.25
2022-11-29T00:56:02.256Z,95374.03
2022-11-29T00:57:04.349Z,95378.25
2022-11-29T00:58:08.643Z,95370.91
2022-11-29T00:59:10.472Z,95375.56
2022-11-29T01:00:14.405Z,95371.66
2022-11-29T01:01:16.602Z,95367.44
2022-11-29T01:02:19.552Z,95367.44
2022-11-29T01:03:21.578Z,95374.38
2022-11-29T01:04:24.683Z,95373.22
2022-11-29T01:05:26.601Z,95374.00
2022-11-29T01:06:29.683Z,95377.88
2022-11-29T01:07:31.616Z,95382.88
2022-11-29T01:08:34.552Z,95370.13
2022-11-29T01:09:36.493Z,95372.06
2022-11-29T01:10:39.787Z,95369.34
2022-11-29T01:11:41.672Z,95373.63
2022-11-29T01:12:44.744Z,95379.81
2022-11-29T01:13:49.074Z,95377.84
2022-11-29T01:14:51.912Z,95374.00
2022-11-29T01:15:55.964Z,95373.19
2022-11-29T01:16:58.825Z,95376.72
2022-11-29T01:18:00.808Z,95376.72
2022-11-29T01:19:03.952Z,95373.19
2022-11-29T01:20:08.021Z,95373.19
2022-11-29T01:21:12.812Z,95368.56
2022-11-29T01:22:14.691Z,95375.53
2022-11-29T01:23:17.534Z,95377.47
2022-11-29T01:24:22.185Z,95378.63
2022-11-29T01:25:24.128Z,95386.38
2022-11-29T01:26:29.583Z,95375.53
2022-11-29T01:27:31.509Z,95376.72
2022-11-29T01:28:35.337Z,95386.38
2022-11-29T01:29:39.053Z,95370.09
2022-11-29T01:30:41.929Z,95378.25
2022-11-29T01:31:43.797Z,95386.38
2022-11-29T01:32:46.686Z,95378.25
2022-11-29T01:33:48.644Z,95380.94
2022-11-29T01:34:51.468Z,95371.66
2022-11-29T01:35:54.900Z,95368.97
2022-11-29T01:36:57.884Z,95378.63
2022-11-29T01:37:59.775Z,95389.47
2022-11-29T01:39:03.927Z,95374.38
2022-11-29T01:40:07.255Z,95371.66
2022-11-29T01:41:13.759Z,95373.19
2022-11-29T01:42:15.673Z,95368.97
2022-11-29T01:43:19.386Z,95373.59
2022-11-29T01:45:05.638Z,95369.72
2022-11-29T01:46:07.524Z,95367.78
2022-11-29T01:47:11.879Z,95377.84
2022-11-29T01:48:14.580Z,95377.44
2022-11-29T01:49:22.374Z,95375.91
2022-11-29T01:50:24.615Z,95369.31
2022-11-29T01:51:29.398Z,95373.97
2022-11-29T01:52:32.944Z,95370.50
2022-11-29T01:53:35.762Z,95373.19
2022-11-29T01:54:42.168Z,95375.53
2022-11-29T01:55:49.837Z,95374.72
2022-11-29T01:56:53.070Z,95372.03
2022-11-29T01:57:56.124Z,95369.31
2022-11-29T01:58:58.185Z,95372.81
2022-11-29T02:00:08.612Z,95370.88
2022-11-29T02:01:16.372Z,95366.59
2022-11-29T02:02:22.557Z,95365.47
2022-11-29T02:03:25.847Z,95367.41
2022-11-29T02:04:31.688Z,95370.88
2022-11-29T02:05:34.661Z,95375.53
2022-11-29T02:06:38.489Z,95370.09
2022-11-29T02:07:44.192Z,95365.47
2022-11-29T02:08:47.069Z,95376.28
2022-11-29T02:09:49.048Z,95370.88
2022-11-29T02:11:09.406Z,95372.41
2022-11-29T02:12:21.331Z,95367.41
2022-11-29T02:13:32.272Z,95365.47
2022-11-29T02:14:48.900Z,95369.69
2022-11-29T02:15:58.260Z,95366.22
2022-11-29T02:17:08.430Z,95370.50
2022-11-29T02:18:14.726Z,95370.06
2022-11-29T02:19:38.292Z,95371.63
2022-11-29T02:21:12.138Z,95362.34
2022-11-29T02:22:21.054Z,95363.50
2022-11-29T02:23:52.274Z,95362.34
2022-11-29T02:25:09.331Z,95356.91
2022-11-29T02:26:21.769Z,95361.19
2022-11-29T02:28:05.906Z,95362.34
2022-11-29T02:29:37.778Z,95367.75
2022-11-29T02:31:00.296Z,95370.47
2022-11-29T02:32:51.692Z,95365.03
2022-11-29T02:34:17.836Z,95365.81
2022-11-29T02:35:34.606Z,95359.63
2022-11-29T02:36:51.421Z,95358.47
2022-11-29T02:38:12.964Z,95369.31
2022-11-29T02:39:43.794Z,95372.03
2022-11-29T02:41:11.967Z,95366.59
2022-11-29T02:43:00.238Z,95370.84
2022-11-29T02:44:24.382Z,95365.44
2022-11-29T02:45:38.528Z,95365.44
2022-11-29T02:46:55.026Z,95366.19
2022-11-29T02:48:12.468Z,95364.66
2022-11-29T02:49:27.286Z,95364.66
2022-11-29T02:50:41.124Z,95367.38
2022-11-29T02:51:49.074Z,95367.38
2022-11-29T02:53:00.807Z,95364.66
2022-11-29T02:54:13.749Z,95368.13
2022-11-29T02:55:21.955Z,95370.84
2022-11-29T02:56:30.763Z,95368.91
2022-11-29T02:57:41.293Z,95369.31
2022-11-29T02:58:51.263Z,95370.06
2022-11-29T03:00:02.352Z,95370.06
2022-11-29T03:01:16.770Z,95364.66
2022-11-29T03:02:26.658Z,95370.84
2022-11-29T03:03:38.122Z,95369.31
2022-11-29T03:04:47.665Z,95370.84
2022-11-29T03:05:58.664Z,95364.66
2022-11-29T03:07:11.044Z,95376.25
2022-11-29T03:08:23.264Z,95369.31
2022-11-29T03:09:36.045Z,95370.06
2022-11-29T03:10:46.593Z,95376.25
2022-11-29T03:11:56.726Z,95379.75
2022-11-29T03:12:59.907Z,95375.50
2022-11-29T03:14:15.437Z,95374.72
2022-11-29T03:15:27.524Z,95373.56
2022-11-29T03:16:43.028Z,95380.91
2022-11-29T03:17:57.591Z,95372.03
2022-11-29T03:19:07.301Z,95376.25
2022-11-29T03:20:26.572Z,95386.34
2022-11-29T03:21:42.505Z,95387.09
2022-11-29T03:22:51.191Z,95382.44
2022-11-29T03:23:58.318Z,95377.78
2022-11-29T03:25:06.487Z,95387.50
2022-11-29T03:26:14.895Z,95382.44
2022-11-29T03:27:23.933Z,95381.69
2022-11-29T03:28:32.046Z,95381.69
2022-11-29T03:29:40.481Z,95376.25
2022-11-29T03:30:49.947Z,95377.78
2022-11-29T03:32:00.492Z,95383.22
2022-11-29T03:33:10.745Z,95381.69
2022-11-29T03:34:22.355Z,95380.50
2022-11-29T03:35:34.090Z,95378.59
2022-11-29T03:36:44.487Z,95383.22
2022-11-29T03:37:53.128Z,95387.09
2022-11-29T03:39:00.025Z,95382.88
2022-11-29T03:40:06.201Z,95380.16
2022-11-29T03:41:19.320Z,95386.34
2022-11-29T03:42:26.519Z,95387.09
2022-11-29T03:43:37.935Z,95384.41
2022-11-29T03:44:44.703Z,95381.31
2022-11-29T03:45:53.378Z,95390.19
2022-11-29T03:47:01.880Z,95387.50
2022-11-29T03:48:10.439Z,95384.78
2022-11-29T03:49:19.589Z,95385.53
2022-11-29T03:50:27.064Z,95385.53
2022-11-29T03:51:41.387Z,95380.13
2022-11-29T03:52:50.638Z,95380.88
2022-11-29T03:53:57.382Z,95382.06
2022-11-29T03:55:13.849Z,95391.72
2022-11-29T03:56:30.953Z,95387.88
2022-11-29T03:57:41.960Z,95382.44
2022-11-29T03:58:53.194Z,95389.03
2022-11-29T04:00:04.976Z,95384.78
2022-11-29T04:01:34.127Z,95382.06
2022-11-29T04:03:06.183Z,95380.50
2022-11-29T04:05:00.242Z,95384.78
2022-11-29T04:06:24.453Z,95386.31
2022-11-29T04:08:01.501Z,95382.06
2022-11-29T04:09:24.938Z,95380.88
2022-11-29T04:10:44.914Z,95379.34
2022-11-29T04:12:04.653Z,95378.19
2022-11-29T04:13:54.821Z,95377.78
2022-11-29T04:15:33.703Z,95382.44
2022-11-29T04:17:20.329Z,95382.44
2022-11-29T04:18:40.889Z,95385.53
2022-11-29T04:20:10.526Z,95388.63
2022-11-29T04:21:34.690Z,95380.13
2022-11-29T04:23:07.236Z,95373.13
2022-11-29T04:24:56.811Z,95383.97
2022-11-29T04:26:40.151Z,95371.59
2022-11-29T04:28:07.426Z,95383.97
2022-11-29T04:29:22.247Z,95380.88
2022-11-29T04:30:26.418Z,95377.41
2022-11-29T04:31:38.286Z,95380.13
2022-11-29T04:33:20.524Z,95383.97
2022-11-29T04:34:51.070Z,95380.88
2022-11-29T04:36:12.175Z,95376.63
2022-11-29T04:37:24.371Z,95379.31
2022-11-29T04:39:02.586Z,95378.56
2022-11-29T04:40:32.006Z,95380.88
2022-11-29T04:42:09.796Z,95380.88
2022-11-29T04:43:30.934Z,95384.75
2022-11-29T04:44:50.715Z,95385.53
2022-11-29T04:46:40.877Z,95385.53
2022-11-29T04:47:54.405Z,95390.97
2022-11-29T04:49:11.030Z,95389.78
2022-11-29T04:50:26.324Z,95387.06
2022-11-29T04:51:48.672Z,95389.78
2022-11-29T04:53:15.823Z,95387.06
2022-11-29T04:54:27.681Z,95388.25
2022-11-29T04:55:43.838Z,95391.72
2022-11-29T04:56:49.924Z,95387.84
2022-11-29T04:58:00.401Z,95394.06
2022-11-29T04:59:07.784Z,95385.13
2022-11-29T05:00:12.675Z,95392.50
2022-11-29T05:01:23.369Z,95394.06
2022-11-29T05:02:34.246Z,95394.06
2022-11-29T05:03:40.408Z,95400.25
2022-11-29T05:04:52.065Z,95401.78
2022-11-29T05:06:02.800Z,95393.66
2022-11-29T05:07:12.821Z,95392.88
2022-11-29T05:08:26.603Z,95391.69
2022-11-29T05:09:39.358Z,95392.88
2022-11-29T05:10:52.525Z,95402.53
2022-11-29T05:12:05.168Z,95396.34
2022-11-29T05:13:18.751Z,95396.34
2022-11-29T05:14:36.380Z,95397.91
2022-11-29T05:16:03.162Z,95397.13
2022-11-29T05:17:32.512Z,95402.53
2022-11-29T05:18:57.623Z,95397.91
2022-11-29T05:20:14.435Z,95398.69
2022-11-29T05:21:24.955Z,95397.91
2022-11-29T05:22:37.018Z,95403.34
2022-11-29T05:23:51.066Z,95399.44
2022-11-29T05:25:01.669Z,95411.06
2022-11-29T05:26:11.770Z,95410.28
2022-11-29T05:27:21.435Z,95404.09
2022-11-29T05:28:29.288Z,95402.53
2022-11-29T05:29:39.491Z,95409.53
2022-11-29T05:31:06.596Z,95405.63
2022-11-29T05:32:28.579Z,95398.69
2022-11-29T05:33:47.935Z,95409.53
2022-11-29T05:35:04.121Z,95414.94
2022-11-29T05:36:20.612Z,95406.81
2022-11-29T05:37:31.020Z,95411.06
2022-11-29T05:38:52.225Z,95416.09
2022-11-29T05:40:09.456Z,95412.19
2022-11-29T05:41:32.891Z,95414.16
2022-11-29T05:43:03.924Z,95415.31
2022-11-29T05:44:12.625Z,95413.38
2022-11-29T05:45:20.394Z,95411.06
2022-11-29T05:46:30.015Z,95408.72
2022-11-29T05:47:41.394Z,95413.00
2022-11-29T05:48:50.715Z,95415.72
2022-11-29T05:50:04.248Z,95411.81
2022-11-29T05:51:20.020Z,95414.16
2022-11-29T05:52:25.588Z,95418.00
2022-11-29T05:53:34.198Z,95410.25
2022-11-29T05:54:42.132Z,95416.09
2022-11-29T05:55:53.110Z,95415.69
2022-11-29T05:57:07.193Z,95417.25
2022-11-29T05:58:14.853Z,95421.88
2022-11-29T05:59:21.539Z,95416.44
2022-11-29T06:00:24.503Z,95419.94
2022-11-29T06:01:31.768Z,95427.28
2022-11-29T06:02:49.397Z,95416.44
2022-11-29T06:03:59.264Z,95416.44
2022-11-29T06:05:09.724Z,95421.88
2022-11-29T06:06:20.598Z,95430.38
2022-11-29T06:07:28.987Z,95423.03
2022-11-29T06:08:40.087Z,95424.97
2022-11-29T06:09:48.215Z,95420.34
2022-11-29T06:10:57.699Z,95418.38
2022-11-29T06:12:06.721Z,95426.53
2022-11-29T06:13:22.033Z,95429.22
2022-11-29T06:14:53.252Z,95425.34
2022-11-29T06:16:18.844Z,95426.53
2022-11-29T06:17:42.979Z,95429.22
2022-11-29T06:19:19.567Z,95429.22
2022-11-29T06:20:49.930Z,95428.06
2022-11-29T06:22:00.189Z,95428.06
2022-11-29T06:23:23.228Z,95425.34
2022-11-29T06:24:47.408Z,95426.91
2022-11-29T06:26:07.266Z,95432.31
2022-11-29T06:27:29.343Z,95435.03
2022-11-29T06:28:51.088Z,95432.31
2022-11-29T06:30:02.205Z,95434.25
2022-11-29T06:31:16.455Z,95439.66
2022-11-29T06:32:28.056Z,95438.91
2022-11-29T06:33:39.531Z,95438.91
2022-11-29T06:34:50.103Z,95428.06
2022-11-29T06:36:10.692Z,95445.88
2022-11-29T06:37:20.437Z,95433.47
2022-11-29T06:38:27.437Z,95437.75
2022-11-29T06:39:29.698Z,95440.47
2022-11-29T06:40:33.257Z,95440.47
2022-11-29T06:41:36.866Z,95445.88
2022-11-29T06:42:41.078Z,95442.00
2022-11-29T06:43:43.503Z,95443.16
2022-11-29T06:44:47.347Z,95441.22
2022-11-29T06:45:51.768Z,95446.66
2022-11-29T06:47:04.189Z,95442.00
2022-11-29T06:48:10.013Z,95445.09
2022-11-29T06:49:15.784Z,95445.88
2022-11-29T06:50:34.606Z,95440.47
2022-11-29T06:51:49.207Z,95443.16
2022-11-29T06:52:59.582Z,95441.22
2022-11-29T06:54:17.878Z,95445.88
2022-11-29T06:55:25.794Z,95444.69
2022-11-29T06:56:40.773Z,95453.59
2022-11-29T06:57:58.165Z,95449.34
2022-11-29T06:59:08.822Z,95448.19
2022-11-29T07:00:17.459Z,95455.53
2022-11-29T07:01:28.160Z,95452.84
2022-11-29T07:02:50.056Z,95452.84
2022-11-29T07:04:10.131Z,95452.84
2022-11-29T07:05:22.537Z,95453.59
2022-11-29T07:06:27.311Z,95463.69
2022-11-29T07:07:31.324Z,95452.84
2022-11-29T07:08:33.738Z,95463.69
2022-11-29T07:09:37.026Z,95453.59
2022-11-29T07:10:41.678Z,95460.59
2022-11-29T07:11:45.118Z,95461.34
2022-11-29T07:12:52.009Z,95455.44
2022-11-29T07:13:55.509Z,95461.63
2022-11-29T07:14:58.803Z,95459.72
2022-11-29T07:16:09.235Z,95456.63
2022-11-29T07:17:22.275Z,95455.47
2022-11-29T07:18:32.737Z,95458.97
2022-11-29T07:19:43.968Z,95457.81
2022-11-29T07:21:00.194Z,95463.22
2022-11-29T07:22:09.387Z,95462.09
2022-11-29T07:23:22.099Z,95467.88
2022-11-29T07:24:43.278Z,95458.22
2022-11-29T07:25:57.334Z,95461.31
2022-11-29T07:27:04.948Z,95467.94
2022-11-29T07:28:20.961Z,95469.84
2022-11-29T07:29:33.653Z,95456.69
2022-11-29T07:30:45.042Z,95468.31
2022-11-29T07:32:00.816Z,95466.78
2022-11-29T07:33:14.578Z,95463.28
2022-11-29T07:34:28.734Z,95471.41
2022-11-29T07:35:39.995Z,95469.88
2022-11-29T07:36:54.927Z,95466.38
2022-11-29T07:38:09.923Z,95469.88
2022-11-29T07:39:23.821Z,95469.09
2022-11-29T07:40:37.545Z,95469.88
2022-11-29T07:41:47.758Z,95469.88
2022-11-29T07:43:05.904Z,95475.28
2022-11-29T07:44:17.842Z,95476.06
2022-11-29T07:45:26.947Z,95472.59
2022-11-29T07:46:29.222Z,95470.63
2022-11-29T07:47:35.791Z,95476.06
2022-11-29T07:48:39.109Z,95469.09
2022-11-29T07:49:42.232Z,95469.88
2022-11-29T07:50:45.995Z,95471.41
2022-11-29T07:51:49.199Z,95472.97
2022-11-29T07:52:51.185Z,95476.06
2022-11-29T07:53:54.103Z,95475.28
2022-11-29T07:54:56.282Z,95469.88
2022-11-29T07:55:59.262Z,95475.28
2022-11-29T07:57:01.188Z,95476.81
2022-11-29T07:58:04.183Z,95476.81
2022-11-29T07:59:10.963Z,95476.06
2022-11-29T08:00:17.070Z,95469.88
2022-11-29T08:01:18.934Z,95475.28
2022-11-29T08:02:28.558Z,95476.81
2022-11-29T08:03:32.954Z,95476.06
2022-11-29T08:04:35.021Z,95483.03
2022-11-29T08:05:39.211Z,95485.75
2022-11-29T08:06:41.136Z,95478.00
2022-11-29T08:07:44.305Z,95477.63
2022-11-29T08:08:47.355Z,95482.25
2022-11-29T08:09:49.354Z,95473.34
2022-11-29T08:10:52.191Z,95476.06
2022-11-29T08:11:55.067Z,95478.38
2022-11-29T08:12:56.997Z,95483.81
2022-11-29T08:14:01.033Z,95481.47
2022-11-29T08:15:03.361Z,95487.66
2022-11-29T08:16:08.654Z,95478.78
2022-11-29T08:17:11.548Z,95482.25
2022-11-29T08:18:14.910Z,95487.66
2022-11-29T08:19:17.847Z,95480.72
2022-11-29T08:20:21.035Z,95488.84
2022-11-29T08:21:23.995Z,95494.28
2022-11-29T08:22:26.924Z,95488.47
2022-11-29T08:23:29.504Z,95483.81
2022-11-29T08:24:32.420Z,95494.66
2022-11-29T08:25:34.529Z,95489.22
2022-11-29T08:26:37.651Z,95494.66
2022-11-29T08:27:39.636Z,95483.81
2022-11-29T08:28:42.514Z,95483.03
2022-11-29T08:29:45.374Z,95496.19
2022-11-29T08:30:48.252Z,95490.00
2022-11-29T08:31:53.630Z,95487.28
2022-11-29T08:32:55.740Z,95484.56
2022-11-29T08:33:58.700Z,95490.75
2022-11-29T08:35:00.921Z,95483.81
2022-11-29T08:36:08.225Z,95494.66
2022-11-29T08:37:10.157Z,95498.91
2022-11-29T08:38:13.018Z,95487.28
2022-11-29T08:39:15.016Z,95492.31
2022-11-29T08:40:18.488Z,95492.31
2022-11-29T08:41:21.377Z,95497.75
2022-11-29T08:42:23.297Z,95492.31
2022-11-29T08:43:26.209Z,95486.09
2022-11-29T08:44:29.186Z,95496.56
2022-11-29T08:45:31.174Z,95497.75
2022-11-29T08:46:48.170Z,95492.31
2022-11-29T08:47:52.420Z,95491.53
2022-11-29T08:48:54.311Z,95491.53
2022-11-29T08:50:06.090Z,95496.19
2022-11-29T08:51:09.006Z,95496.59
2022-11-29T08:52:31.228Z,95494.66
2022-11-29T08:53:42.050Z,95496.94
2022-11-29T08:54:45.560Z,95496.94
2022-11-29T08:55:48.630Z,95495.03
2022-11-29T08:58:16.420Z,95495.41
2022-11-29T08:59:19.283Z,95491.53
2022-11-29T09:00:22.477Z,95497.75
2022-11-29T09:01:25.365Z,95500.47
2022-11-29T09:02:27.450Z,95497.75
2022-11-29T09:03:50.685Z,95503.94
2022-11-29T09:04:53.622Z,95503.56
2022-11-29T09:05:57.504Z,95500.06
2022-11-29T09:07:00.328Z,95502.75
2022-11-29T09:08:02.372Z,95504.72
2022-11-29T09:09:05.470Z,95500.47
2022-11-29T09:10:09.540Z,95508.19
2022-11-29T09:11:16.320Z,95504.72
2022-11-29T09:12:18.199Z,95503.56
2022-11-29T09:13:21.020Z,95510.91
2022-11-29T09:14:23.002Z,95501.63
2022-11-29T09:15:25.891Z,95507.03
2022-11-29T09:16:31.034Z,95504.31
2022-11-29T09:17:33.289Z,95508.56
2022-11-29T09:18:38.778Z,95509.38
2022-11-29T09:19:41.871Z,95517.50
2022-11-29T09:20:45.426Z,95519.03
2022-11-29T09:21:48.531Z,95509.38
2022-11-29T09:22:51.383Z,95525.22
2022-11-29T09:23:58.760Z,95519.03
2022-11-29T09:25:01.778Z,95512.44
2022-11-29T09:26:03.962Z,95514.78
2022-11-29T09:27:07.326Z,95517.09
2022-11-29T09:28:11.426Z,95512.47
2022-11-29T09:29:14.256Z,95517.13
2022-11-29T09:30:22.111Z,95517.88
2022-11-29T09:31:27.482Z,95521.34
2022-11-29T09:32:31.452Z,95525.63
2022-11-29T09:33:33.590Z,95525.63
2022-11-29T09:34:37.832Z,95516.31
2022-11-29T09:35:40.772Z,95516.31
2022-11-29T09:36:44.168Z,95521.75
2022-11-29T09:37:46.095Z,95516.31
2022-11-29T09:38:49.000Z,95520.97
2022-11-29T09:39:51.821Z,95518.66
2022-11-29T09:40:55.497Z,95527.94
2022-11-29T09:42:09.735Z,95524.47
2022-11-29T09:43:24.819Z,95527.16
2022-11-29T09:44:37.954Z,95519.03
2022-11-29T09:45:46.552Z,95523.28
2022-11-29T09:46:58.978Z,95526.78
2022-11-29T09:48:26.579Z,95527.16
2022-11-29T09:50:04.691Z,95527.94
2022-11-29T09:51:18.786Z,95519.81
2022-11-29T09:52:32.889Z,95524.84
2022-11-29T09:53:50.041Z,95524.84
2022-11-29T09:55:00.712Z,95531.78
2022-11-29T09:56:17.586Z,95531.78
2022-11-29T09:57:23.899Z,95523.66
2022-11-29T09:58:32.924Z,95526.38
2022-11-29T09:59:41.024Z,95526.38
2022-11-29T10:00:47.468Z,95527.16
2022-11-29T10:01:55.595Z,95528.31
2022-11-29T10:03:03.021Z,95530.25
2022-11-29T10:04:12.525Z,95532.97
2022-11-29T10:05:22.189Z,95527.56
2022-11-29T10:06:26.914Z,95526.78
2022-11-29T10:07:36.966Z,95534.91
2022-11-29T10:08:43.928Z,95524.84
2022-11-29T10:09:51.434Z,95530.25
2022-11-29T10:10:57.580Z,95527.16
2022-11-29T10:12:13.475Z,95522.50
2022-11-29T10:13:21.403Z,95524.03
2022-11-29T10:14:29.234Z,95524.03
2022-11-29T10:15:38.535Z,95528.31
2022-11-29T10:16:48.039Z,95528.72
2022-11-29T10:17:56.107Z,95527.91
2022-11-29T10:19:05.842Z,95520.19
2022-11-29T10:20:16.018Z,95524.44
2022-11-29T10:21:25.151Z,95527.13
2022-11-29T10:22:39.329Z,95524.44
2022-11-29T10:23:45.192Z,95523.28
2022-11-29T10:24:52.747Z,95522.47
2022-11-29T10:25:58.202Z,95522.47
2022-11-29T10:27:01.346Z,95520.19
2022-11-29T10:28:05.964Z,95514.75
2022-11-29T10:29:13.969Z,95525.19
2022-11-29T10:30:17.709Z,95517.84
2022-11-29T10:31:27.203Z,95517.84
2022-11-29T10:32:32.438Z,95517.84
2022-11-29T10:33:40.809Z,95514.34
2022-11-29T10:34:44.430Z,95510.88
2022-11-29T10:35:49.411Z,95517.84
2022-11-29T10:36:58.801Z,95517.47
2022-11-29T10:39:30.955Z,95513.19
2022-11-29T10:40:39.147Z,95510.50
2022-11-29T10:41:41.993Z,95517.84
2022-11-29T10:42:50.001Z,95510.88
2022-11-29T10:43:55.601Z,95517.84
2022-11-29T10:44:59.381Z,95513.19
2022-11-29T10:46:02.592Z,95514.72
2022-11-29T10:47:10.810Z,95508.94
2022-11-29T10:48:17.237Z,95510.88
2022-11-29T10:49:23.337Z,95514.75
2022-11-29T10:50:27.687Z,95510.88
2022-11-29T10:51:31.504Z,95513.19
2022-11-29T10:52:35.801Z,95509.31
2022-11-29T10:53:38.838Z,95511.25
2022-11-29T10:54:45.056Z,95515.50
2022-11-29T10:55:50.379Z,95511.63
2022-11-29T10:56:53.366Z,95507.75
2022-11-29T10:58:12.148Z,95508.16
2022-11-29T10:59:22.857Z,95509.69
2022-11-29T11:00:24.868Z,95513.97
2022-11-29T11:01:29.130Z,95510.84
2022-11-29T11:02:32.296Z,95518.97
2022-11-29T11:03:38.559Z,95519.75
2022-11-29T11:04:46.653Z,95520.13
2022-11-29T11:06:09.676Z,95512.00
2022-11-29T11:07:23.762Z,95515.50
2022-11-29T11:08:29.708Z,95520.94
2022-11-29T11:09:36.298Z,95519.34
2022-11-29T11:10:38.452Z,95513.16
2022-11-29T11:11:44.182Z,95516.66
2022-11-29T11:13:01.991Z,95515.13
2022-11-29T11:14:08.064Z,95525.97
2022-11-29T11:15:16.655Z,95517.44
2022-11-29T11:16:21.432Z,95520.94
2022-11-29T11:17:26.999Z,95521.69
2022-11-29T11:18:30.821Z,95514.72
2022-11-29T11:19:35.520Z,95520.94
2022-11-29T11:20:42.199Z,95518.59
2022-11-29T11:21:45.216Z,95516.69
2022-11-29T11:22:58.642Z,95524.81
2022-11-29T11:24:04.069Z,95521.31
2022-11-29T11:25:24.990Z,95525.59
2022-11-29T11:26:44.019Z,95520.53
2022-11-29T11:27:46.610Z,95516.66
2022-11-29T11:28:53.761Z,95520.94
2022-11-29T11:29:56.802Z,95521.69
2022-11-29T11:31:01.892Z,95530.97
2022-11-29T11:32:08.646Z,95519.34
2022-11-29T11:33:19.468Z,95518.22
2022-11-29T11:34:34.208Z,95517.41
2022-11-29T11:35:37.367Z,95521.69
2022-11-29T11:36:40.239Z,95521.69
2022-11-29T11:37:42.056Z,95525.16
2022-11-29T11:38:52.448Z,95526.69
2022-11-29T11:39:58.199Z,95521.69
2022-11-29T11:41:06.813Z,95530.22
2022-11-29T11:42:30.748Z,95530.22
2022-11-29T11:43:35.015Z,95524.78
2022-11-29T11:44:48.768Z,95532.91
2022-11-29T11:45:54.994Z,95530.22
2022-11-29T11:46:58.170Z,95535.63
2022-11-29T11:48:03.763Z,95528.69
2022-11-29T11:49:13.652Z,95533.69
2022-11-29T11:50:18.047Z,95527.88
2022-11-29T11:51:25.526Z,95522.47
2022-11-29T11:52:32.215Z,95524.03
2022-11-29T11:53:39.271Z,95529.44
2022-11-29T11:54:47.491Z,95532.53
2022-11-29T11:56:00.932Z,95528.69
2022-11-29T11:57:04.592Z,95529.06
2022-11-29T11:58:17.724Z,95527.13
2022-11-29T11:59:24.531Z,95535.63
2022-11-29T12:02:25.790Z,95532.53
2022-11-29T12:03:39.258Z,95534.50
2022-11-29T12:04:42.443Z,95531.78
2022-11-29T12:05:46.840Z,95530.97
2022-11-29T12:06:52.596Z,95536.41
2022-11-29T12:08:07.681Z,95539.53
2022-11-29T12:09:19.402Z,95537.19
2022-11-29T12:10:28.145Z,95541.06
2022-11-29T12:11:42.332Z,95540.25
2022-11-29T12:12:48.272Z,95540.25
2022-11-29T12:13:56.936Z,95527.50
2022-11-29T12:15:02.953Z,95533.69
2022-11-29T12:16:11.055Z,95532.50
2022-11-29T12:17:23.339Z,95537.94
2022-11-29T12:18:37.914Z,95537.94
2022-11-29T12:19:50.670Z,95535.22
2022-11-29T12:20:56.948Z,95536.41
2022-11-29T12:22:04.048Z,95531.75
2022-11-29T12:23:22.822Z,95532.91
2022-11-29T12:24:31.907Z,95527.88
2022-11-29T12:25:41.936Z,95536.78
2022-11-29T12:26:56.856Z,95537.56
2022-11-29T12:28:01.050Z,95542.59
2022-11-29T12:29:03.182Z,95541.44
2022-11-29T12:30:13.372Z,95541.03
2022-11-29T12:31:30.168Z,95536.78
2022-11-29T12:33:03.992Z,95542.59
2022-11-29T12:34:23.041Z,95537.16
2022-11-29T12:35:58.875Z,95540.66
2022-11-29T12:37:11.099Z,95541.41
2022-11-29T12:38:30.106Z,95542.59
2022-11-29T12:39:46.691Z,95546.84
2022-11-29T12:40:56.654Z,95548.78
2022-11-29T12:42:10.674Z,95544.13
2022-11-29T12:43:22.643Z,95544.91
2022-11-29T12:44:40.449Z,95545.69
2022-11-29T12:45:50.453Z,95536.38
2022-11-29T12:47:34.178Z,95543.34
2022-11-29T12:48:37.133Z,95544.91
2022-11-29T12:49:52.268Z,95550.31
2022-11-29T12:51:05.528Z,95543.72
2022-11-29T12:52:16.156Z,95543.72
2022-11-29T12:53:28.537Z,95546.84
2022-11-29T12:54:50.030Z,95546.44
2022-11-29T12:56:06.399Z,95551.84
2022-11-29T12:57:19.331Z,95548.75
2022-11-29T12:58:31.726Z,95549.53
2022-11-29T12:59:51.249Z,95545.66
2022-11-29T13:01:03.713Z,95542.94
2022-11-29T13:02:21.908Z,95553.81
2022-11-29T13:03:31.525Z,95547.19
2022-11-29T13:04:45.696Z,95554.56
2022-11-29T13:06:02.301Z,95546.44
2022-11-29T13:07:19.636Z,95550.28
2022-11-29T13:08:44.508Z,95549.53
2022-11-29T13:09:59.576Z,95548.00
2022-11-29T13:11:14.087Z,95554.94
2022-11-29T13:12:24.913Z,95554.19
2022-11-29T13:13:38.263Z,95554.19
2022-11-29T13:14:49.140Z,95549.53
2022-11-29T13:16:02.284Z,95554.94
2022-11-29T13:17:17.037Z,95558.44
2022-11-29T13:18:26.920Z,95552.63
2022-11-29T13:19:40.131Z,95562.72
2022-11-29T13:20:48.338Z,95563.84
2022-11-29T13:22:01.891Z,95571.22
2022-11-29T13:23:15.793Z,95568.53
2022-11-29T13:24:26.669Z,95569.31
2022-11-29T13:25:33.554Z,95564.28
2022-11-29T13:26:37.935Z,95564.28
2022-11-29T13:27:55.489Z,95565.03
2022-11-29T13:28:59.550Z,95561.97
2022-11-29T13:30:02.538Z,95565.06
2022-11-29T13:31:08.613Z,95557.31
2022-11-29T13:32:32.254Z,95555.78
2022-11-29T13:33:48.422Z,95563.91
2022-11-29T13:34:53.335Z,95568.94
2022-11-29T13:36:02.425Z,95559.63
2022-11-29T13:37:14.095Z,95564.28
2022-11-29T13:38:23.790Z,95563.13
2022-11-29T13:39:39.839Z,95557.31
2022-11-29T13:40:53.188Z,95567.75
2022-11-29T13:42:04.682Z,95561.16
2022-11-29T13:43:19.911Z,95565.03
2022-11-29T13:44:33.218Z,95566.59
2022-11-29T13:45:43.696Z,95570.06
2022-11-29T13:46:53.134Z,95573.56
2022-11-29T13:47:59.234Z,95568.13